Monday, January 21, 2019, 6:07 PM EST
Back to Local

KSNC, Chester, Chester Airport

Location: Chester, CT, United States Lat: 41.384
Local Time: 6:07 PM EST (23:07 GMT) Lon: -72.506
Time Zone: US/Eastern Elev: 416 ft

Show me the last for .
Show Coded

Time T Td Feel RH Dir Speed Gust Alt SLP Vis Weather Sky Remarks
2019-01-21 17:35 9 -6 -13 50 310° 15 25 29.98 - 10 CLR None
2019-01-21 17:15 9 -4 -14 55 310° 16 31 29.96 - 10 CLR None
2019-01-21 16:55 9 -4 -13 55 310° 14 26 29.95 - 10 CLR None
2019-01-21 16:35 9 -6 -15 50 310° 17 33 29.94 - 10 CLR None
2019-01-21 16:15 9 -6 -16 50 320° 16 36 29.94 - 10 CLR None
2019-01-21 15:55 9 -4 -14 55 310° 16 30 29.92 - 10 None
2019-01-21 15:35 9 -4 -13 55 310° 17 25 29.92 - 10 FEW034 FEW040 None
2019-01-21 15:15 9 -4 -13 55 310° 14 26 29.91 - 10 FEW034 FEW040 FEW060 None
2019-01-21 14:55 9 -4 -13 55 300° 14 28 29.90 - 10 None
2019-01-21 14:35 7 -6 -18 55 320° 22 35 29.89 - 8 -SN None
2019-01-21 14:15 7 -6 -16 55 310° 12 28 29.89 - 9 FEW030 None
2019-01-21 13:55 7 -6 - 55 - Calm 24 29.88 - 6 -SN FEW031 None
2019-01-21 13:35 7 -8 -15 50 310° 15 24 29.88 - 10 FEW030 None
2019-01-21 13:15 5 -8 - 54 - Calm - 29.88 - 9 CLR None
2019-01-21 12:55 3 -8 - 59 - Calm - 29.88 - 2 -SN None
2019-01-21 12:35 3 -8 - 59 - Calm - 29.88 - 1 -SN None
2019-01-21 12:15 3 -8 - 59 - Calm - 29.89 - 2 -SN None
2019-01-21 11:55 1 -9 - 59 - Calm - 29.89 - 1 -SN BKN001 BKN021 BKN036 None
2019-01-21 11:35 3 -13 - 45 - Calm - 29.89 - 9 -SN CLR None
2019-01-21 11:15 3 -9 - 54 - Calm - 29.89 - 3 -SN None
2019-01-21 10:55 3 -13 - 45 - Calm - 29.89 - 8 -SN None
2019-01-21 10:35 3 -13 - 45 - Calm - 29.89 - 10 FEW031 None
2019-01-21 10:15 3 -11 - 50 - Calm - 29.88 - 10 BKN031 None
2019-01-21 09:55 1 -13 - 49 - Calm - 29.88 - 10 SCT032 None
2019-01-21 09:35 1 -13 - 49 - Calm - 29.87 - 10 FEW032 None
2019-01-21 09:15 1 -13 - 49 - Calm - 29.86 - 10 CLR None
2019-01-21 08:55 1 -13 - 49 - Calm - 29.84 - 10 CLR None
2019-01-21 08:35 1 -13 - 49 - Calm - 29.85 - 10 CLR None
2019-01-21 08:15 1 -13 - 49 - Calm - 29.84 - 10 CLR None
2019-01-21 07:55 0 -13 - 54 - Calm - 29.83 - 10 CLR None
2019-01-21 07:35 0 -13 - 54 - Calm - 29.82 - 10 CLR None
2019-01-21 07:15 0 -13 - 54 - Calm - 29.80 - 10 CLR None
2019-01-21 06:55 0 -11 - 59 - Calm - 29.80 - 10 CLR None
2019-01-21 06:35 0 -11 - 59 - Calm - 29.79 - 10 CLR None
2019-01-21 06:15 0 -11 - 59 - Calm - 29.78 - 10 CLR None
2019-01-21 05:55 0 -11 - 59 - Calm - 29.78 - 10 CLR None
2019-01-21 05:35 0 -11 - 59 - Calm - 29.77 - 10 CLR None
2019-01-21 05:15 1 -11 - 54 - Calm - 29.76 - 10 CLR None
2019-01-21 04:55 1 -9 - 59 - Calm - 29.75 - 10 CLR None
2019-01-21 04:35 1 -9 - 59 - Calm - 29.73 - 10 CLR None
2019-01-21 04:15 1 -9 - 59 - Calm - 29.73 - 10 CLR None
2019-01-21 03:55 1 -9 - 59 - Calm - 29.73 - 10 CLR None
2019-01-21 03:35 1 -9 - 59 - Calm - 29.73 - 10 CLR None
2019-01-21 03:15 3 -8 - 59 - Calm - 29.72 - 10 CLR None
2019-01-21 02:55 3 -8 - 59 - Calm - 29.71 - 10 CLR None
2019-01-21 02:35 3 -9 - 54 - Calm - 29.71 - 10 CLR None
2019-01-21 02:15 3 -8 - 59 - Calm - 29.71 - 10 CLR None
2019-01-21 01:55 3 -6 - 65 - Calm - 29.70 - 10 CLR None
2019-01-21 01:35 5 -6 - 60 - Calm - 29.68 - 10 CLR None
2019-01-21 01:15 5 -6 - 60 - Calm - 29.67 - 10 CLR None
2019-01-21 00:55 5 -6 - 60 - Calm - 29.65 - 10 CLR None
2019-01-21 00:35 5 -6 - 60 - Calm - 29.65 - 10 CLR None
2019-01-21 00:15 5 -6 - 60 - Calm - 29.64 - 10 CLR None
2019-01-20 23:55 7 -6 - 55 - Calm - 29.63 - 10 CLR None
2019-01-20 23:35 7 -4 - 60 - Calm - 29.62 - 10 CLR None
2019-01-20 23:15 7 -4 - 60 - Calm - 29.61 - 10 CLR None
2019-01-20 22:55 7 -2 - 65 - Calm - 29.60 - 10 CLR None
2019-01-20 22:35 7 -2 - 65 - Calm - 29.60 - 10 CLR None
2019-01-20 22:15 9 0 - 65 - Calm - 29.58 - 10 CLR None
2019-01-20 21:55 9 0 - 65 - Calm - 29.55 - 10 CLR None
2019-01-20 21:35 9 1 - 71 - Calm - 29.53 - 10 CLR None
2019-01-20 21:15 10 1 - 66 - Calm - 29.52 - 10 CLR None
2019-01-20 20:55 10 3 - 72 - Calm - 29.52 - 10 CLR None
2019-01-20 20:35 10 3 - 72 - Calm - 29.51 - 10 CLR None
2019-01-20 20:15 12 5 - 72 - Calm - 29.50 - 10 CLR None
2019-01-20 19:55 12 5 - 72 - Calm - 29.49 - 10 None
2019-01-20 19:35 14 7 - 72 - Calm - 29.48 - 10 None
2019-01-20 19:15 16 9 - 72 - Calm - 29.47 - 10 None
2019-01-20 18:55 18 10 - 72 - Calm - 29.44 - 10 None
2019-01-20 18:35 19 12 - 73 - Calm - 29.42 - 10 None
2019-01-20 18:15 21 16 - 79 - Calm - 29.41 - 10 SCT017 None

Support USWX by starting your Amazon purchase here.